모두
Palumpa Airport (Palumpa, Northern Territory) YPUA 기상
There is no TAF data available at YPUA. Showing TAF data for YPKT (23 mi 서).
PKT 터미널 지역 예측(YPUA에 대한 데이터 없음)
| Date | Time (ACST) | Flight Rules | Wind Dir. | Speed | Type | Height AGL (ft) | Visibility | Remarks | ||||||
|---|---|---|---|---|---|---|---|---|---|---|---|---|---|---|
| 03-5월 | 16:30 | VFR | 280° | 8 kt | Scattered | 4,000 | >= 6 miles | |||||||
| 03-5월 | 15:30 | VFR | 280° | 8 kt | Scattered | 4,000 | >= 6 miles | |||||||
| 03-5월 | 14:30 | VFR | 280° | 8 kt | Scattered | 4,000 | >= 6 miles | |||||||
| 03-5월 | 13:30 | VFR | 280° | 8 kt | Scattered | 4,000 | >= 6 miles | |||||||
| 03-5월 | 12:30 | VFR | 140° | 6 kt | Few | 3,000 | >= 6 miles | |||||||
| 03-5월 | 11:30 | VFR | 140° | 6 kt | Few | 3,000 | >= 6 miles | |||||||
| 03-5월 | 10:30 | VFR | 140° | 6 kt | Few | 3,000 | >= 6 miles | |||||||
| 03-5월 | 09:30 | VFR | 140° | 6 kt | Few | 3,000 | >= 6 miles | |||||||
| 03-5월 | 08:30 | VFR | 140° | 6 kt | Few | 3,000 | >= 6 miles | |||||||
| 03-5월 | 07:30 | VFR | 140° | 6 kt | Scattered | 1,000 | >= 6 miles | |||||||
| 03-5월 | 06:30 | MVFR | 140° | 6 kt | Broken | 1,000 | >= 6 miles | |||||||
There is no METAR data available at YPUA. Showing METAR data for YPKT (23 mi 서).
최근 PKT METAR 이력(YPUA에 대한 데이터 없음)
| Date | Time (ACST) | Flight Rules | Wind Dir. | Speed | Type | Height AGL (ft) | Visibility | Temp (°C) | Temp (°F) | Dew Point (°C) | Dew Point (°F) | Rel. Humid. | Pressure | Density Altitude | Remarks |
|---|---|---|---|---|---|---|---|---|---|---|---|---|---|---|---|
| 03-5월 | 06:30 | n/a | Calm | Missing | 23° | 73° | 23° | 73° | 100% | 1010 mb | 1,146 ft | ||||
| 03-5월 | 05:30 | n/a | Calm | Missing | 23° | 73° | 23° | 73° | 100% | 1010 mb | 1,146 ft | ||||
| 03-5월 | 04:30 | n/a | 80° | 1 kt | Missing | 24° | 75° | 24° | 75° | 100% | 1010 mb | 1,266 ft | |||
| 03-5월 | 03:30 | n/a | Calm | Missing | 24° | 75° | 24° | 75° | 100% | 1010 mb | 1,266 ft | ||||
| 03-5월 | 02:30 | n/a | Calm | Missing | 25° | 77° | 24° | 75° | 94% | 1010 mb | 1,386 ft | ||||
| 03-5월 | 01:30 | n/a | Calm | Missing | 24° | 75° | 24° | 75° | 100% | 1011 mb | 1,236 ft | ||||
| 03-5월 | 00:30 | n/a | Calm | Missing | 25° | 77° | 24° | 75° | 94% | 1011 mb | 1,356 ft | ||||
| 02-5월 | 23:30 | n/a | Calm | Missing | 25° | 77° | 25° | 77° | 100% | 1011 mb | 1,356 ft | ||||
| 02-5월 | 22:30 | n/a | Calm | Missing | 25° | 77° | 25° | 77° | 100% | 1011 mb | 1,356 ft | ||||
| 02-5월 | 21:30 | n/a | Calm | Missing | 25° | 77° | 25° | 77° | 100% | 1011 mb | 1,356 ft | ||||
| 02-5월 | 20:30 | n/a | Calm | Missing | 26° | 78° | 25° | 77° | 94% | 1010 mb | 1,506 ft | ||||
| 02-5월 | 19:30 | n/a | Calm | Missing | 27° | 80° | 25° | 77° | 89% | 1009 mb | 1,655 ft | ||||
| 02-5월 | 18:30 | n/a | 300° | 4 kt | Missing | 28° | 82° | 25° | 77° | 84% | 1009 mb | 1,775 ft | |||
| 02-5월 | 17:30 | n/a | 270° | 1 kt | Missing | 28° | 82° | 25° | 77° | 84% | 1009 mb | 1,775 ft | |||
| 02-5월 | 16:30 | n/a | 270° | 7 kt | Missing | 26° | 78° | 23° | 73° | 84% | 1009 mb | 1,535 ft | |||
| 02-5월 | 15:30 | n/a | 350° | 9 kt | Missing | 31° | 87° | 24° | 75° | 66% | 1008 mb | 2,165 ft | |||
| 02-5월 | 14:30 | n/a | 10° | 6 kt | Missing | 33° | 91° | 24° | 75° | 59% | 1009 mb | 2,375 ft | |||
| 02-5월 | 13:30 | n/a | 30° | 7 kt | Missing | 33° | 91° | 24° | 75° | 59% | 1010 mb | 2,346 ft | |||
| 02-5월 | 12:30 | n/a | 20° | 7 kt | Missing | 33° | 91° | 22° | 71° | 53% | 1010 mb | 2,346 ft | |||
| 02-5월 | 11:30 | n/a | 20° | 6 kt | Missing | 32° | 89° | 23° | 73° | 59% | 1011 mb | 2,196 ft | |||
| 02-5월 | 10:30 | n/a | 60° | 7 kt | Missing | 30° | 86° | 22° | 71° | 62% | 1012 mb | 1,927 ft | |||
| 02-5월 | 09:30 | n/a | 80° | 5 kt | Missing | 28° | 82° | 22° | 71° | 70% | 1012 mb | 1,687 ft | |||
| 02-5월 | 08:30 | n/a | 100° | 4 kt | Missing | 27° | 80° | 21° | 69° | 70% | 1011 mb | 1,596 ft | |||
| 02-5월 | 07:30 | n/a | 120° | 3 kt | Missing | 24° | 75° | 20° | 68° | 78% | 1011 mb | 1,236 ft |
로그인
| 귀하의 브라우저는 지원되지 않습니다.. 브라우저를 업그레이드하세요 |
